sensor_id;sensor_type;location;lat;lon;timestamp;pressure;altitude;pressure_sealevel;temperature;humidity
46583;BME280;32309;48.858;8.252;2023-03-26T00:01:21;99848.91;;;8.91;77.94
46583;BME280;32309;48.858;8.252;2023-03-26T00:03:22;99848.00;;;8.92;78.19
46583;BME280;32309;48.858;8.252;2023-03-26T00:05:23;99850.50;;;8.94;77.69
46583;BME280;32309;48.858;8.252;2023-03-26T00:07:23;99851.31;;;8.94;77.17
46583;BME280;32309;48.858;8.252;2023-03-26T00:09:23;99850.50;;;8.94;77.59
46583;BME280;32309;48.858;8.252;2023-03-26T00:11:25;99848.81;;;8.93;76.57
46583;BME280;32309;48.858;8.252;2023-03-26T00:13:27;99849.56;;;8.95;76.97
46583;BME280;32309;48.858;8.252;2023-03-26T00:15:28;99848.72;;;8.94;76.38
46583;BME280;32309;48.858;8.252;2023-03-26T00:17:28;99839.22;;;8.95;76.21
46583;BME280;32309;48.858;8.252;2023-03-26T00:19:28;99847.91;;;8.94;75.83
46583;BME280;32309;48.858;8.252;2023-03-26T00:21:29;99835.72;;;8.96;76.13
46583;BME280;32309;48.858;8.252;2023-03-26T00:23:30;99839.97;;;8.97;76.13
46583;BME280;32309;48.858;8.252;2023-03-26T00:25:36;99839.13;;;8.96;75.47
46583;BME280;32309;48.858;8.252;2023-03-26T00:27:40;99833.97;;;8.96;75.35
46583;BME280;32309;48.858;8.252;2023-03-26T00:29:40;99839.97;;;8.97;75.07
46583;BME280;32309;48.858;8.252;2023-03-26T00:31:41;99832.22;;;8.97;75.83
46583;BME280;32309;48.858;8.252;2023-03-26T00:33:46;99830.53;;;8.96;75.20
46583;BME280;32309;48.858;8.252;2023-03-26T00:35:50;99828.81;;;8.96;75.22
46583;BME280;32309;48.858;8.252;2023-03-26T00:37:50;99827.03;;;8.97;75.38
46583;BME280;32309;48.858;8.252;2023-03-26T00:39:52;99827.03;;;8.97;74.83
46583;BME280;32309;48.858;8.252;2023-03-26T00:41:53;99826.31;;;8.95;75.11
46583;BME280;32309;48.858;8.252;2023-03-26T00:43:55;99828.91;;;8.95;75.00
46583;BME280;32309;48.858;8.252;2023-03-26T00:45:57;99831.47;;;8.95;75.32
46583;BME280;32309;48.858;8.252;2023-03-26T00:47:57;99837.56;;;8.94;74.44
46583;BME280;32309;48.858;8.252;2023-03-26T00:49:58;99835.72;;;8.96;75.15
46583;BME280;32309;48.858;8.252;2023-03-26T00:51:58;99826.22;;;8.96;74.92
46583;BME280;32309;48.858;8.252;2023-03-26T00:53:59;99820.94;;;8.98;75.05
46583;BME280;32309;48.858;8.252;2023-03-26T00:55:59;99816.59;;;8.98;74.91
46583;BME280;32309;48.858;8.252;2023-03-26T00:58:00;99808.03;;;8.98;74.22
46583;BME280;32309;48.858;8.252;2023-03-26T01:00:00;99806.34;;;8.97;74.80
46583;BME280;32309;48.858;8.252;2023-03-26T01:02:16;99806.34;;;8.97;74.73
46583;BME280;32309;48.858;8.252;2023-03-26T01:04:27;99804.69;;;8.96;74.83
46583;BME280;32309;48.858;8.252;2023-03-26T01:06:30;99797.78;;;8.96;74.10
46583;BME280;32309;48.858;8.252;2023-03-26T01:08:38;99798.69;;;8.95;74.77
46583;BME280;32309;48.858;8.252;2023-03-26T01:10:42;99801.19;;;8.97;74.90
46583;BME280;32309;48.858;8.252;2023-03-26T01:12:49;99792.63;;;8.96;73.83
46583;BME280;32309;48.858;8.252;2023-03-26T01:14:50;99789.19;;;8.96;74.63
46583;BME280;32309;48.858;8.252;2023-03-26T01:18:54;99778.03;;;8.95;74.43
46583;BME280;32309;48.858;8.252;2023-03-26T01:20:57;99780.59;;;8.95;73.72
46583;BME280;32309;48.858;8.252;2023-03-26T01:23:04;99772.84;;;8.95;74.39
46583;BME280;32309;48.858;8.252;2023-03-26T01:25:06;99759.09;;;8.95;74.14
46583;BME280;32309;48.858;8.252;2023-03-26T01:27:10;99757.34;;;8.95;74.59
46583;BME280;32309;48.858;8.252;2023-03-26T01:31:42;99747.81;;;8.96;74.44
46583;BME280;32309;48.858;8.252;2023-03-26T01:34:08;99740.00;;;8.97;74.67
46583;BME280;32309;48.858;8.252;2023-03-26T01:36:15;99739.16;;;8.97;74.21
46583;BME280;32309;48.858;8.252;2023-03-26T01:40:54;99730.69;;;8.95;74.34
46583;BME280;32309;48.858;8.252;2023-03-26T01:43:08;99729.81;;;8.94;74.15
46583;BME280;32309;48.858;8.252;2023-03-26T01:45:16;99721.25;;;8.94;74.39
46583;BME280;32309;48.858;8.252;2023-03-26T01:47:22;99705.75;;;8.94;74.23
46583;BME280;32309;48.858;8.252;2023-03-26T01:49:23;99701.69;;;8.90;73.63
46583;BME280;32309;48.858;8.252;2023-03-26T01:51:28;99695.66;;;8.89;74.38
46583;BME280;32309;48.858;8.252;2023-03-26T01:53:34;99698.25;;;8.89;73.71
46583;BME280;32309;48.858;8.252;2023-03-26T01:55:45;99687.91;;;8.89;73.64
46583;BME280;32309;48.858;8.252;2023-03-26T01:58:11;99681.13;;;8.88;73.34
46583;BME280;32309;48.858;8.252;2023-03-26T02:00:29;99677.56;;;8.89;74.26
46583;BME280;32309;48.858;8.252;2023-03-26T02:07:52;99680.34;;;8.86;73.92
46583;BME280;32309;48.858;8.252;2023-03-26T02:09:40;99673.53;;;8.85;74.34
46583;BME280;32309;48.858;8.252;2023-03-26T02:11:44;99670.03;;;8.86;74.08
46583;BME280;32309;48.858;8.252;2023-03-26T02:13:46;99663.94;;;8.87;74.07
46583;BME280;32309;48.858;8.252;2023-03-26T02:15:56;99664.03;;;8.86;74.32
46583;BME280;32309;48.858;8.252;2023-03-26T02:18:01;99661.44;;;8.86;74.08
46583;BME280;32309;48.858;8.252;2023-03-26T02:20:03;99663.19;;;8.85;73.96
46583;BME280;32309;48.858;8.252;2023-03-26T02:22:04;99660.69;;;8.83;73.79
46583;BME280;32309;48.858;8.252;2023-03-26T02:24:05;99659.88;;;8.83;73.46
46583;BME280;32309;48.858;8.252;2023-03-26T02:26:07;99652.94;;;8.83;74.24
46583;BME280;32309;48.858;8.252;2023-03-26T02:28:09;99646.97;;;8.83;73.85
46583;BME280;32309;48.858;8.252;2023-03-26T02:30:11;99647.97;;;8.80;73.52
46583;BME280;32309;48.858;8.252;2023-03-26T02:32:14;99631.53;;;8.81;74.11
46583;BME280;32309;48.858;8.252;2023-03-26T02:34:15;99635.06;;;8.80;74.17
46583;BME280;32309;48.858;8.252;2023-03-26T02:36:16;99634.97;;;8.82;73.96
46583;BME280;32309;48.858;8.252;2023-03-26T02:38:18;99624.63;;;8.82;74.41
46583;BME280;32309;48.858;8.252;2023-03-26T02:40:18;99615.31;;;8.79;73.92
46583;BME280;32309;48.858;8.252;2023-03-26T02:42:21;99623.78;;;8.81;74.12
46583;BME280;32309;48.858;8.252;2023-03-26T02:44:21;99616.03;;;8.81;74.34
46583;BME280;32309;48.858;8.252;2023-03-26T02:46:21;99611.69;;;8.82;74.53
46583;BME280;32309;48.858;8.252;2023-03-26T02:48:22;99606.44;;;8.83;74.51
46583;BME280;32309;48.858;8.252;2023-03-26T02:50:22;99606.44;;;8.83;74.79
46583;BME280;32309;48.858;8.252;2023-03-26T02:52:23;99608.91;;;8.85;74.84
46583;BME280;32309;48.858;8.252;2023-03-26T02:54:23;99594.25;;;8.86;74.96
46583;BME280;32309;48.858;8.252;2023-03-26T02:56:23;99592.50;;;8.86;74.33
46583;BME280;32309;48.858;8.252;2023-03-26T02:58:24;99594.16;;;8.87;75.00
46583;BME280;32309;48.858;8.252;2023-03-26T03:00:25;99587.31;;;8.86;74.74
46583;BME280;32309;48.858;8.252;2023-03-26T03:02:25;99578.22;;;8.80;75.06
46583;BME280;32309;48.858;8.252;2023-03-26T03:04:28;99573.31;;;8.76;75.35
46583;BME280;32309;48.858;8.252;2023-03-26T03:06:28;99575.34;;;8.71;75.54
46583;BME280;32309;48.858;8.252;2023-03-26T03:08:29;99563.53;;;8.66;75.43
46583;BME280;32309;48.858;8.252;2023-03-26T03:10:30;99563.72;;;8.63;76.71
46583;BME280;32309;48.858;8.252;2023-03-26T03:12:31;99561.25;;;8.62;76.59
46583;BME280;32309;48.858;8.252;2023-03-26T03:14:31;99571.66;;;8.60;77.38
46583;BME280;32309;48.858;8.252;2023-03-26T03:16:32;99571.75;;;8.59;77.14
46583;BME280;32309;48.858;8.252;2023-03-26T03:18:32;99571.84;;;8.57;77.11
46583;BME280;32309;48.858;8.252;2023-03-26T03:20:32;99568.53;;;8.55;75.06
46583;BME280;32309;48.858;8.252;2023-03-26T03:22:34;99567.22;;;8.48;76.82
46583;BME280;32309;48.858;8.252;2023-03-26T03:24:35;99563.16;;;8.44;77.09
46583;BME280;32309;48.858;8.252;2023-03-26T03:26:35;99558.06;;;8.42;77.52
46583;BME280;32309;48.858;8.252;2023-03-26T03:28:36;99564.91;;;8.43;77.89
46583;BME280;32309;48.858;8.252;2023-03-26T03:30:36;99552.91;;;8.42;77.96
46583;BME280;32309;48.858;8.252;2023-03-26T03:32:37;99547.75;;;8.42;78.08
46583;BME280;32309;48.858;8.252;2023-03-26T03:34:37;99538.25;;;8.43;78.09
46583;BME280;32309;48.858;8.252;2023-03-26T03:36:37;99532.16;;;8.44;78.26
46583;BME280;32309;48.858;8.252;2023-03-26T03:38:38;99533.16;;;8.41;78.16
46583;BME280;32309;48.858;8.252;2023-03-26T03:40:40;99528.81;;;8.42;78.17
46583;BME280;32309;48.858;8.252;2023-03-26T03:42:40;99519.44;;;8.41;78.77
46583;BME280;32309;48.858;8.252;2023-03-26T03:44:40;99515.09;;;8.41;78.79
46583;BME280;32309;48.858;8.252;2023-03-26T03:46:41;99517.88;;;8.38;78.48
46583;BME280;32309;48.858;8.252;2023-03-26T03:48:41;99518.88;;;8.36;78.79
46583;BME280;32309;48.858;8.252;2023-03-26T03:50:47;99510.28;;;8.35;78.42
46583;BME280;32309;48.858;8.252;2023-03-26T03:52:47;99515.66;;;8.32;78.57
46583;BME280;32309;48.858;8.252;2023-03-26T03:54:47;99516.66;;;8.29;78.01
46583;BME280;32309;48.858;8.252;2023-03-26T03:56:48;99504.78;;;8.27;78.84
46583;BME280;32309;48.858;8.252;2023-03-26T03:58:49;99503.09;;;8.26;77.68
46583;BME280;32309;48.858;8.252;2023-03-26T04:00:51;99493.63;;;8.26;79.19
46583;BME280;32309;48.858;8.252;2023-03-26T04:02:51;99485.97;;;8.25;78.88
46583;BME280;32309;48.858;8.252;2023-03-26T04:04:53;99485.88;;;8.26;78.99
46583;BME280;32309;48.858;8.252;2023-03-26T04:06:53;99491.16;;;8.25;79.33
46583;BME280;32309;48.858;8.252;2023-03-26T04:08:57;99482.66;;;8.23;79.23
46583;BME280;32309;48.858;8.252;2023-03-26T04:10:57;99483.66;;;8.20;79.47
46583;BME280;32309;48.858;8.252;2023-03-26T04:12:58;99477.69;;;8.20;77.80
46583;BME280;32309;48.858;8.252;2023-03-26T04:14:58;99468.38;;;8.17;78.24
46583;BME280;32309;48.858;8.252;2023-03-26T04:16:58;99466.59;;;8.18;79.03
46583;BME280;32309;48.858;8.252;2023-03-26T04:18:59;99460.63;;;8.17;79.68
46583;BME280;32309;48.858;8.252;2023-03-26T04:21:01;99456.28;;;8.18;79.70
46583;BME280;32309;48.858;8.252;2023-03-26T04:23:01;99453.69;;;8.18;79.98
46583;BME280;32309;48.858;8.252;2023-03-26T04:25:03;99446.06;;;8.16;79.85
46583;BME280;32309;48.858;8.252;2023-03-26T04:27:04;99449.66;;;8.13;80.45
46583;BME280;32309;48.858;8.252;2023-03-26T04:29:07;99444.50;;;8.13;80.39
46583;BME280;32309;48.858;8.252;2023-03-26T04:31:13;99441.09;;;8.13;80.36
46583;BME280;32309;48.858;8.252;2023-03-26T04:33:16;99436.75;;;8.13;80.65
46583;BME280;32309;48.858;8.252;2023-03-26T04:35:16;99434.16;;;8.13;79.99
46583;BME280;32309;48.858;8.252;2023-03-26T04:37:23;99437.66;;;8.12;80.25
46583;BME280;32309;48.858;8.252;2023-03-26T04:39:26;99429.09;;;8.12;80.98
46583;BME280;32309;48.858;8.252;2023-03-26T04:41:28;99426.53;;;8.12;80.62
46583;BME280;32309;48.858;8.252;2023-03-26T04:43:29;99413.63;;;8.12;80.55
46583;BME280;32309;48.858;8.252;2023-03-26T04:45:30;99399.84;;;8.11;78.67
46583;BME280;32309;48.858;8.252;2023-03-26T04:47:30;99399.13;;;8.09;80.17
46583;BME280;32309;48.858;8.252;2023-03-26T04:49:30;99403.38;;;8.10;80.67
46583;BME280;32309;48.858;8.252;2023-03-26T04:51:37;99393.97;;;8.09;80.01
46583;BME280;32309;48.858;8.252;2023-03-26T04:53:40;99398.22;;;8.10;80.29
46583;BME280;32309;48.858;8.252;2023-03-26T04:55:46;99400.81;;;8.10;80.17
46583;BME280;32309;48.858;8.252;2023-03-26T04:57:52;99396.47;;;8.11;80.07
46583;BME280;32309;48.858;8.252;2023-03-26T04:59:56;99393.13;;;8.09;79.16
46583;BME280;32309;48.858;8.252;2023-03-26T05:01:56;99389.63;;;8.10;78.81
46583;BME280;32309;48.858;8.252;2023-03-26T05:03:58;99383.00;;;8.06;78.66
46583;BME280;32309;48.858;8.252;2023-03-26T05:05:59;99377.94;;;8.04;79.26
46583;BME280;32309;48.858;8.252;2023-03-26T05:07:59;99368.53;;;8.03;79.24
46583;BME280;32309;48.858;8.252;2023-03-26T05:10:00;99359.88;;;8.04;78.75
46583;BME280;32309;48.858;8.252;2023-03-26T05:12:02;99347.78;;;8.05;80.19
46583;BME280;32309;48.858;8.252;2023-03-26T05:14:02;99344.41;;;8.04;78.59
46583;BME280;32309;48.858;8.252;2023-03-26T05:16:03;99349.66;;;8.03;79.05
46583;BME280;32309;48.858;8.252;2023-03-26T05:18:03;99348.00;;;8.02;79.63
46583;BME280;32309;48.858;8.252;2023-03-26T05:20:03;99340.16;;;8.03;80.30
46583;BME280;32309;48.858;8.252;2023-03-26T05:22:04;99342.53;;;8.06;80.47
46583;BME280;32309;48.858;8.252;2023-03-26T05:24:04;99337.19;;;8.09;79.89
46583;BME280;32309;48.858;8.252;2023-03-26T05:26:05;99330.09;;;8.13;79.95
46583;BME280;32309;48.858;8.252;2023-03-26T05:28:06;99331.72;;;8.14;79.42
46583;BME280;32309;48.858;8.252;2023-03-26T05:30:08;99320.41;;;8.16;79.62
46583;BME280;32309;48.858;8.252;2023-03-26T05:32:11;99310.91;;;8.17;78.86
46583;BME280;32309;48.858;8.252;2023-03-26T05:34:11;99310.72;;;8.20;79.46
46583;BME280;32309;48.858;8.252;2023-03-26T05:36:12;99302.97;;;8.20;78.91
46583;BME280;32309;48.858;8.252;2023-03-26T05:38:12;99292.63;;;8.20;78.77
46583;BME280;32309;48.858;8.252;2023-03-26T05:40:13;99289.97;;;8.22;78.29
46583;BME280;32309;48.858;8.252;2023-03-26T05:42:15;99285.72;;;8.21;78.75
46583;BME280;32309;48.858;8.252;2023-03-26T05:44:16;99282.22;;;8.22;78.53
46583;BME280;32309;48.858;8.252;2023-03-26T05:46:16;99277.06;;;8.22;78.38
46583;BME280;32309;48.858;8.252;2023-03-26T05:48:17;99267.56;;;8.22;78.24
46583;BME280;32309;48.858;8.252;2023-03-26T05:50:17;99261.47;;;8.23;78.38
46583;BME280;32309;48.858;8.252;2023-03-26T05:52:17;99260.53;;;8.24;78.28
46583;BME280;32309;48.858;8.252;2023-03-26T05:54:18;99262.19;;;8.25;78.30
46583;BME280;32309;48.858;8.252;2023-03-26T05:56:18;99262.09;;;8.27;78.01
46583;BME280;32309;48.858;8.252;2023-03-26T05:58:18;99256.94;;;8.27;78.38
46583;BME280;32309;48.858;8.252;2023-03-26T06:00:19;99245.69;;;8.28;78.21
46583;BME280;32309;48.858;8.252;2023-03-26T06:02:19;99264.56;;;8.28;77.83
46583;BME280;32309;48.858;8.252;2023-03-26T06:04:19;99271.50;;;8.28;78.21
46583;BME280;32309;48.858;8.252;2023-03-26T06:06:20;99278.50;;;8.26;78.16
46583;BME280;32309;48.858;8.252;2023-03-26T06:08:20;99269.22;;;8.23;78.10
46583;BME280;32309;48.858;8.252;2023-03-26T06:10:21;99258.88;;;8.23;78.46
46583;BME280;32309;48.858;8.252;2023-03-26T06:12:21;99255.38;;;8.24;78.92
46583;BME280;32309;48.858;8.252;2023-03-26T06:14:22;99256.28;;;8.23;79.11
46583;BME280;32309;48.858;8.252;2023-03-26T06:16:22;99258.81;;;8.25;79.91
46583;BME280;32309;48.858;8.252;2023-03-26T06:18:23;99257.03;;;8.25;79.91
46583;BME280;32309;48.858;8.252;2023-03-26T06:20:24;99254.47;;;8.25;79.14
46583;BME280;32309;48.858;8.252;2023-03-26T06:22:24;99238.06;;;8.26;77.86
46583;BME280;32309;48.858;8.252;2023-03-26T06:24:24;99238.16;;;8.25;79.95
46583;BME280;32309;48.858;8.252;2023-03-26T06:26:24;99232.03;;;8.26;81.73
46583;BME280;32309;48.858;8.252;2023-03-26T06:28:25;99231.94;;;8.27;80.04
46583;BME280;32309;48.858;8.252;2023-03-26T06:30:25;99225.03;;;8.28;81.06
46583;BME280;32309;48.858;8.252;2023-03-26T06:32:25;99237.94;;;8.28;81.39
46583;BME280;32309;48.858;8.252;2023-03-26T06:34:25;99226.88;;;8.26;79.23
46583;BME280;32309;48.858;8.252;2023-03-26T06:36:26;99220.38;;;8.20;78.46
46583;BME280;32309;48.858;8.252;2023-03-26T06:38:26;99222.13;;;8.20;81.42
46583;BME280;32309;48.858;8.252;2023-03-26T06:40:26;99224.63;;;8.21;81.51
46583;BME280;32309;48.858;8.252;2023-03-26T06:42:27;99217.69;;;8.22;80.98
46583;BME280;32309;48.858;8.252;2023-03-26T06:44:27;99211.59;;;8.23;80.01
46583;BME280;32309;48.858;8.252;2023-03-26T06:46:27;99215.84;;;8.24;82.10
46583;BME280;32309;48.858;8.252;2023-03-26T06:48:27;99217.50;;;8.25;82.59
46583;BME280;32309;48.858;8.252;2023-03-26T06:50:28;99210.69;;;8.24;81.30
46583;BME280;32309;48.858;8.252;2023-03-26T06:52:31;99210.78;;;8.22;81.92
46583;BME280;32309;48.858;8.252;2023-03-26T06:54:31;99207.47;;;8.20;83.06
46583;BME280;32309;48.858;8.252;2023-03-26T06:56:31;99197.03;;;8.22;82.95
46583;BME280;32309;48.858;8.252;2023-03-26T06:58:31;99207.56;;;8.19;82.40
46583;BME280;32309;48.858;8.252;2023-03-26T07:00:32;99207.66;;;8.17;81.22
46583;BME280;32309;48.858;8.252;2023-03-26T07:02:32;99200.84;;;8.16;83.48
46583;BME280;32309;48.858;8.252;2023-03-26T07:04:32;99201.66;;;8.16;84.22
46583;BME280;32309;48.858;8.252;2023-03-26T07:06:32;99199.81;;;8.19;84.13
46583;BME280;32309;48.858;8.252;2023-03-26T07:08:33;99197.94;;;8.21;83.28
46583;BME280;32309;48.858;8.252;2023-03-26T07:10:33;99189.41;;;8.20;83.81
46583;BME280;32309;48.858;8.252;2023-03-26T07:12:33;99191.16;;;8.20;83.47
46583;BME280;32309;48.858;8.252;2023-03-26T07:14:33;99192.09;;;8.19;83.83
46583;BME280;32309;48.858;8.252;2023-03-26T07:16:37;99183.50;;;8.18;83.07
46583;BME280;32309;48.858;8.252;2023-03-26T07:18:37;99179.34;;;8.15;84.83
46583;BME280;32309;48.858;8.252;2023-03-26T07:20:37;99166.66;;;8.12;84.28
46583;BME280;32309;48.858;8.252;2023-03-26T07:22:38;99159.75;;;8.13;79.96
46583;BME280;32309;48.858;8.252;2023-03-26T07:24:39;99147.16;;;8.08;80.88
46583;BME280;32309;48.858;8.252;2023-03-26T07:29:04;99156.81;;;8.05;85.13
46583;BME280;32309;48.858;8.252;2023-03-26T07:33:43;99127.31;;;8.09;86.13
46583;BME280;32309;48.858;8.252;2023-03-26T07:36:00;99124.03;;;8.07;84.76
46583;BME280;32309;48.858;8.252;2023-03-26T07:38:29;99118.22;;;8.03;85.97
46583;BME280;32309;48.858;8.252;2023-03-26T07:42:49;99108.72;;;8.04;86.10
46583;BME280;32309;48.858;8.252;2023-03-26T07:47:41;99100.06;;;8.05;81.61
46583;BME280;32309;48.858;8.252;2023-03-26T07:49:43;99117.53;;;8.01;85.71
46583;BME280;32309;48.858;8.252;2023-03-26T07:51:44;99103.88;;;7.99;86.02
46583;BME280;32309;48.858;8.252;2023-03-26T07:53:45;99118.53;;;7.98;86.12
46583;BME280;32309;48.858;8.252;2023-03-26T07:55:51;99110.88;;;7.97;85.32
46583;BME280;32309;48.858;8.252;2023-03-26T07:58:08;99101.50;;;7.96;85.46
46583;BME280;32309;48.858;8.252;2023-03-26T08:02:56;99117.06;;;7.94;86.69
46583;BME280;32309;48.858;8.252;2023-03-26T08:05:18;99129.16;;;7.94;85.81
46583;BME280;32309;48.858;8.252;2023-03-26T08:07:39;99143.59;;;7.96;88.22
46583;BME280;32309;48.858;8.252;2023-03-26T08:10:05;99145.16;;;7.99;88.91
46583;BME280;32309;48.858;8.252;2023-03-26T08:17:10;99137.63;;;8.09;89.76
46583;BME280;32309;48.858;8.252;2023-03-26T08:19:36;99146.13;;;8.11;89.32
46583;BME280;32309;48.858;8.252;2023-03-26T08:21:46;99150.25;;;8.13;89.41
46583;BME280;32309;48.858;8.252;2023-03-26T08:26:15;99125.06;;;8.17;88.32
46583;BME280;32309;48.858;8.252;2023-03-26T08:30:36;99133.13;;;8.25;89.16
46583;BME280;32309;48.858;8.252;2023-03-26T08:32:37;99136.41;;;8.27;87.41
46583;BME280;32309;48.858;8.252;2023-03-26T08:34:37;99126.34;;;8.37;88.67
46583;BME280;32309;48.858;8.252;2023-03-26T08:36:38;99135.31;;;8.44;89.41
46583;BME280;32309;48.858;8.252;2023-03-26T08:38:38;99121.22;;;8.50;89.74
46583;BME280;32309;48.858;8.252;2023-03-26T08:43:46;99115.94;;;8.64;90.47
46583;BME280;32309;48.858;8.252;2023-03-26T08:50:34;99117.03;;;8.86;89.78
46583;BME280;32309;48.858;8.252;2023-03-26T09:00:47;99108.41;;;9.11;89.01
46583;BME280;32309;48.858;8.252;2023-03-26T09:03:12;99101.38;;;9.13;90.18
46583;BME280;32309;48.858;8.252;2023-03-26T09:10:24;99094.09;;;9.56;89.10
46583;BME280;32309;48.858;8.252;2023-03-26T09:17:41;99088.09;;;9.91;87.79
46583;BME280;32309;48.858;8.252;2023-03-26T09:26:44;99094.16;;;10.14;84.91
46583;BME280;32309;48.858;8.252;2023-03-26T09:39:11;99080.13;;;10.52;82.53
46583;BME280;32309;48.858;8.252;2023-03-26T09:41:20;99074.91;;;10.63;80.71
46583;BME280;32309;48.858;8.252;2023-03-26T09:46:17;99070.78;;;10.95;81.74
46583;BME280;32309;48.858;8.252;2023-03-26T09:55:44;99080.34;;;10.83;79.22
46583;BME280;32309;48.858;8.252;2023-03-26T10:00:17;99084.47;;;10.74;79.14
46583;BME280;32309;48.858;8.252;2023-03-26T10:09:50;99087.63;;;10.55;77.60
46583;BME280;32309;48.858;8.252;2023-03-26T10:16:27;99080.44;;;10.47;77.62
46583;BME280;32309;48.858;8.252;2023-03-26T10:21:12;99071.88;;;10.47;76.04
46583;BME280;32309;48.858;8.252;2023-03-26T10:40:54;99069.41;;;10.45;70.27
46583;BME280;32309;48.858;8.252;2023-03-26T10:52:36;99079.06;;;10.55;66.32
46583;BME280;32309;48.858;8.252;2023-03-26T10:54:45;99084.13;;;10.56;66.23
46583;BME280;32309;48.858;8.252;2023-03-26T10:56:48;99085.66;;;10.59;66.14
46583;BME280;32309;48.858;8.252;2023-03-26T10:58:50;99073.97;;;10.64;65.43
46583;BME280;32309;48.858;8.252;2023-03-26T11:00:57;99078.56;;;10.72;65.54
46583;BME280;32309;48.858;8.252;2023-03-26T11:08:19;99079.13;;;10.98;65.21
46583;BME280;32309;48.858;8.252;2023-03-26T11:10:35;99083.13;;;11.14;64.35
46583;BME280;32309;48.858;8.252;2023-03-26T11:12:54;99079.31;;;11.29;63.61
46583;BME280;32309;48.858;8.252;2023-03-26T11:15:23;99094.97;;;11.39;63.10
46583;BME280;32309;48.858;8.252;2023-03-26T11:17:55;99090.91;;;11.58;62.28
46583;BME280;32309;48.858;8.252;2023-03-26T11:20:05;99090.22;;;11.77;60.51
46583;BME280;32309;48.858;8.252;2023-03-26T11:29:45;99078.16;;;12.08;59.70
46583;BME280;32309;48.858;8.252;2023-03-26T11:34:16;99062.13;;;12.24;55.12
46583;BME280;32309;48.858;8.252;2023-03-26T11:36:22;99072.97;;;12.29;52.90
46583;BME280;32309;48.858;8.252;2023-03-26T11:38:33;99075.44;;;12.31;56.11
46583;BME280;32309;48.858;8.252;2023-03-26T11:40:41;99070.94;;;12.33;55.71
46583;BME280;32309;48.858;8.252;2023-03-26T11:42:48;99071.75;;;12.34;55.54
46583;BME280;32309;48.858;8.252;2023-03-26T11:44:56;99070.44;;;12.39;56.59
46583;BME280;32309;48.858;8.252;2023-03-26T11:47:00;99063.47;;;12.49;55.02
46583;BME280;32309;48.858;8.252;2023-03-26T11:49:05;99061.44;;;12.53;53.54
46583;BME280;32309;48.858;8.252;2023-03-26T11:51:13;99057.63;;;12.57;53.67
46583;BME280;32309;48.858;8.252;2023-03-26T11:53:15;99054.09;;;12.58;50.72
46583;BME280;32309;48.858;8.252;2023-03-26T11:55:18;99059.44;;;12.67;51.23
46583;BME280;32309;48.858;8.252;2023-03-26T11:57:23;99056.72;;;12.68;50.95
46583;BME280;32309;48.858;8.252;2023-03-26T11:59:45;99058.22;;;12.71;51.74
46583;BME280;32309;48.858;8.252;2023-03-26T12:04:10;99060.06;;;12.90;52.74
46583;BME280;32309;48.858;8.252;2023-03-26T12:06:23;99056.25;;;12.94;51.41
46583;BME280;32309;48.858;8.252;2023-03-26T12:08:29;99046.56;;;12.96;50.53
46583;BME280;32309;48.858;8.252;2023-03-26T12:10:34;99032.19;;;13.02;50.68
46583;BME280;32309;48.858;8.252;2023-03-26T12:12:40;99038.34;;;13.10;50.58
46583;BME280;32309;48.858;8.252;2023-03-26T12:14:44;99039.44;;;13.18;51.46
46583;BME280;32309;48.858;8.252;2023-03-26T12:16:57;99030.28;;;13.23;51.13
46583;BME280;32309;48.858;8.252;2023-03-26T12:19:01;99027.97;;;13.20;51.17
46583;BME280;32309;48.858;8.252;2023-03-26T12:21:08;99022.88;;;13.09;49.46
46583;BME280;32309;48.858;8.252;2023-03-26T12:23:32;99028.22;;;12.97;49.81
46583;BME280;32309;48.858;8.252;2023-03-26T12:26:03;99027.88;;;12.81;48.02
46583;BME280;32309;48.858;8.252;2023-03-26T12:30:20;99041.69;;;12.72;50.62
46583;BME280;32309;48.858;8.252;2023-03-26T12:32:30;99042.47;;;12.62;50.45
46583;BME280;32309;48.858;8.252;2023-03-26T12:34:33;99045.19;;;12.61;52.32
46583;BME280;32309;48.858;8.252;2023-03-26T12:36:38;99033.16;;;12.60;53.04
46583;BME280;32309;48.858;8.252;2023-03-26T12:38:38;99030.97;;;12.55;53.65
46583;BME280;32309;48.858;8.252;2023-03-26T12:40:41;99027.22;;;12.48;51.68
46583;BME280;32309;48.858;8.252;2023-03-26T12:42:42;99025.03;;;12.43;51.37
46583;BME280;32309;48.858;8.252;2023-03-26T12:44:57;99017.25;;;12.43;52.04
46583;BME280;32309;48.858;8.252;2023-03-26T12:47:08;99007.78;;;12.42;52.12
46583;BME280;32309;48.858;8.252;2023-03-26T12:49:13;99006.56;;;12.46;52.47
46583;BME280;32309;48.858;8.252;2023-03-26T12:53:26;98995.13;;;12.59;52.86
46583;BME280;32309;48.858;8.252;2023-03-26T12:55:47;98989.66;;;12.62;52.32
46583;BME280;32309;48.858;8.252;2023-03-26T12:58:16;98987.22;;;12.60;51.77
46583;BME280;32309;48.858;8.252;2023-03-26T13:04:31;98980.66;;;12.66;51.80
46583;BME280;32309;48.858;8.252;2023-03-26T13:06:47;98979.69;;;12.67;52.09
46583;BME280;32309;48.858;8.252;2023-03-26T13:17:38;98987.50;;;12.67;49.68
46583;BME280;32309;48.858;8.252;2023-03-26T13:24:18;98992.50;;;12.49;47.01
46583;BME280;32309;48.858;8.252;2023-03-26T13:26:26;98983.06;;;12.48;49.54
46583;BME280;32309;48.858;8.252;2023-03-26T13:28:52;98983.72;;;12.40;49.46
46583;BME280;32309;48.858;8.252;2023-03-26T13:33:16;98987.22;;;12.29;51.23
46583;BME280;32309;48.858;8.252;2023-03-26T13:35:24;98988.59;;;12.24;52.26
46583;BME280;32309;48.858;8.252;2023-03-26T13:46:59;99036.91;;;11.73;53.37
46583;BME280;32309;48.858;8.252;2023-03-26T13:49:09;99040.97;;;11.65;53.63
46583;BME280;32309;48.858;8.252;2023-03-26T13:55:58;99104.84;;;10.68;65.44
46583;BME280;32309;48.858;8.252;2023-03-26T13:58:05;99127.56;;;10.41;67.04
46583;BME280;32309;48.858;8.252;2023-03-26T14:04:48;99149.72;;;9.37;73.01
46583;BME280;32309;48.858;8.252;2023-03-26T14:09:02;99150.91;;;9.07;74.00
46583;BME280;32309;48.858;8.252;2023-03-26T14:11:10;99147.75;;;8.91;76.42
46583;BME280;32309;48.858;8.252;2023-03-26T14:13:17;99152.41;;;8.86;77.53
46583;BME280;32309;48.858;8.252;2023-03-26T14:17:47;99134.22;;;8.74;75.46
46583;BME280;32309;48.858;8.252;2023-03-26T14:22:12;99145.97;;;8.65;75.87
46583;BME280;32309;48.858;8.252;2023-03-26T14:24:44;99147.75;;;8.65;76.44